Terminal Aerodrome Forecast
Issued by NWS

Home | Current Version | Previous Version | Text Only | Print | Product List | Glossary On
Versions: 1 2 3 4 5 6 7 8 9 10 11 12 13
456
FTUS45 KRIW 192329
TAFCPR
TAF
KCPR 192329Z 2000/2024 23020G30KT P6SM SCT070 BKN100
     FM200200 22015KT P6SM SCT100
     FM201500 22025G38KT P6SM SCT100=

USA.gov is the U.S. government's official web portal to all federal, state and local government web resources and services.